sensor_id;sensor_type;location;lat;lon;timestamp;pressure;altitude;pressure_sealevel;temperature;humidity
49393;BME280;35268;42.642;23.308;2023-03-21T00:00:29;93768.38;;;11.79;43.50
49393;BME280;35268;42.642;23.308;2023-03-21T00:02:55;93773.00;;;11.61;43.75
49393;BME280;35268;42.642;23.308;2023-03-21T00:05:21;93771.94;;;11.54;43.99
49393;BME280;35268;42.642;23.308;2023-03-21T00:07:46;93771.03;;;11.41;44.27
49393;BME280;35268;42.642;23.308;2023-03-21T00:10:12;93766.38;;;11.29;44.56
49393;BME280;35268;42.642;23.308;2023-03-21T00:12:38;93772.88;;;11.11;45.10
49393;BME280;35268;42.642;23.308;2023-03-21T00:15:05;93768.19;;;10.99;45.79
49393;BME280;35268;42.642;23.308;2023-03-21T00:17:32;93772.91;;;10.84;46.47
49393;BME280;35268;42.642;23.308;2023-03-21T00:20:02;93770.09;;;10.72;47.03
49393;BME280;35268;42.642;23.308;2023-03-21T00:22:33;93767.31;;;10.69;47.24
49393;BME280;35268;42.642;23.308;2023-03-21T00:24:59;93764.97;;;10.67;47.45
49393;BME280;35268;42.642;23.308;2023-03-21T00:27:25;93766.50;;;10.68;47.48
49393;BME280;35268;42.642;23.308;2023-03-21T00:29:50;93768.41;;;10.68;47.70
49393;BME280;35268;42.642;23.308;2023-03-21T00:32:17;93775.00;;;10.61;47.83
49393;BME280;35268;42.642;23.308;2023-03-21T00:34:43;93771.69;;;10.56;47.93
49393;BME280;35268;42.642;23.308;2023-03-21T00:37:09;93778.28;;;10.58;48.08
49393;BME280;35268;42.642;23.308;2023-03-21T00:39:37;93778.44;;;10.62;48.14
49393;BME280;35268;42.642;23.308;2023-03-21T00:42:02;93778.13;;;10.63;47.79
49393;BME280;35268;42.642;23.308;2023-03-21T00:44:28;93774.19;;;10.70;47.60
49393;BME280;35268;42.642;23.308;2023-03-21T00:46:54;93773.56;;;10.73;47.72
49393;BME280;35268;42.642;23.308;2023-03-21T00:49:19;93774.03;;;10.75;47.72
49393;BME280;35268;42.642;23.308;2023-03-21T00:51:45;93776.06;;;10.78;47.47
49393;BME280;35268;42.642;23.308;2023-03-21T00:54:15;93765.88;;;10.80;47.90
49393;BME280;35268;42.642;23.308;2023-03-21T00:56:41;93768.38;;;10.76;47.96
49393;BME280;35268;42.642;23.308;2023-03-21T00:59:07;93760.72;;;10.75;48.23
49393;BME280;35268;42.642;23.308;2023-03-21T01:01:32;93766.06;;;10.75;48.63
49393;BME280;35268;42.642;23.308;2023-03-21T01:03:58;93762.28;;;10.67;49.45
49393;BME280;35268;42.642;23.308;2023-03-21T01:06:29;93763.72;;;10.64;49.50
49393;BME280;35268;42.642;23.308;2023-03-21T01:08:54;93770.13;;;10.63;49.58
49393;BME280;35268;42.642;23.308;2023-03-21T01:11:25;93765.59;;;10.55;49.25
49393;BME280;35268;42.642;23.308;2023-03-21T01:13:52;93754.59;;;10.48;49.43
49393;BME280;35268;42.642;23.308;2023-03-21T01:16:18;93759.81;;;10.44;49.75
49393;BME280;35268;42.642;23.308;2023-03-21T01:18:43;93753.53;;;10.40;49.83
49393;BME280;35268;42.642;23.308;2023-03-21T01:21:12;93753.03;;;10.30;50.18
49393;BME280;35268;42.642;23.308;2023-03-21T01:23:39;93758.38;;;10.30;50.41
49393;BME280;35268;42.642;23.308;2023-03-21T01:26:06;93754.63;;;10.31;49.73
49393;BME280;35268;42.642;23.308;2023-03-21T01:28:35;93756.63;;;10.25;50.14
49393;BME280;35268;42.642;23.308;2023-03-21T01:31:01;93761.78;;;10.21;50.34
49393;BME280;35268;42.642;23.308;2023-03-21T01:33:28;93765.88;;;10.19;50.41
49393;BME280;35268;42.642;23.308;2023-03-21T01:35:53;93761.78;;;10.21;50.32
49393;BME280;35268;42.642;23.308;2023-03-21T01:38:19;93757.56;;;10.20;50.62
49393;BME280;35268;42.642;23.308;2023-03-21T01:40:48;93761.31;;;10.19;50.61
49393;BME280;35268;42.642;23.308;2023-03-21T01:43:33;93757.41;;;10.17;50.87
49393;BME280;35268;42.642;23.308;2023-03-21T01:48:26;93760.84;;;10.09;51.11
49393;BME280;35268;42.642;23.308;2023-03-21T01:50:53;93762.25;;;10.06;51.16
49393;BME280;35268;42.642;23.308;2023-03-21T01:53:21;93756.47;;;10.04;50.40
49393;BME280;35268;42.642;23.308;2023-03-21T01:55:48;93753.94;;;9.99;50.85
49393;BME280;35268;42.642;23.308;2023-03-21T01:58:14;93752.97;;;9.95;51.39
49393;BME280;35268;42.642;23.308;2023-03-21T02:00:48;93749.53;;;9.94;51.50
49393;BME280;35268;42.642;23.308;2023-03-21T02:03:14;93759.41;;;9.94;51.37
49393;BME280;35268;42.642;23.308;2023-03-21T02:05:59;93756.28;;;9.92;50.97
49393;BME280;35268;42.642;23.308;2023-03-21T02:08:26;93758.63;;;9.93;50.32
49393;BME280;35268;42.642;23.308;2023-03-21T02:10:52;93747.19;;;9.93;50.22
49393;BME280;35268;42.642;23.308;2023-03-21T02:13:17;93743.44;;;9.94;50.20
49393;BME280;35268;42.642;23.308;2023-03-21T02:22:18;93746.53;;;9.78;51.09
49393;BME280;35268;42.642;23.308;2023-03-21T02:25:21;93731.69;;;9.77;50.22
49393;BME280;35268;42.642;23.308;2023-03-21T02:27:58;93737.13;;;9.72;50.84
49393;BME280;35268;42.642;23.308;2023-03-21T02:38:39;93739.13;;;9.58;52.62
49393;BME280;35268;42.642;23.308;2023-03-21T02:41:08;93738.81;;;9.51;52.42
49393;BME280;35268;42.642;23.308;2023-03-21T02:46:21;93729.34;;;9.27;52.55
49393;BME280;35268;42.642;23.308;2023-03-21T02:51:50;93718.69;;;9.27;52.90
49393;BME280;35268;42.642;23.308;2023-03-21T02:54:18;93727.78;;;9.26;53.04
49393;BME280;35268;42.642;23.308;2023-03-21T02:56:46;93717.16;;;9.26;52.90
49393;BME280;35268;42.642;23.308;2023-03-21T02:59:14;93723.25;;;9.27;52.40
49393;BME280;35268;42.642;23.308;2023-03-21T03:01:40;93725.59;;;9.28;51.76
49393;BME280;35268;42.642;23.308;2023-03-21T03:04:20;93726.56;;;9.32;51.11
49393;BME280;35268;42.642;23.308;2023-03-21T03:20:18;93735.13;;;9.29;50.30
49393;BME280;35268;42.642;23.308;2023-03-21T03:22:59;93733.09;;;9.26;49.94
49393;BME280;35268;42.642;23.308;2023-03-21T03:25:31;93740.59;;;9.24;50.22
49393;BME280;35268;42.642;23.308;2023-03-21T03:28:01;93740.91;;;9.22;50.57
49393;BME280;35268;42.642;23.308;2023-03-21T03:30:29;93733.22;;;9.21;50.53
49393;BME280;35268;42.642;23.308;2023-03-21T03:32:58;93747.28;;;9.21;50.90
49393;BME280;35268;42.642;23.308;2023-03-21T03:35:26;93732.16;;;9.22;51.24
49393;BME280;35268;42.642;23.308;2023-03-21T03:37:55;93741.19;;;9.21;51.49
49393;BME280;35268;42.642;23.308;2023-03-21T03:40:28;93741.31;;;9.16;51.60
49393;BME280;35268;42.642;23.308;2023-03-21T03:42:59;93740.50;;;9.07;52.13
49393;BME280;35268;42.642;23.308;2023-03-21T03:45:46;93745.00;;;8.97;52.96
49393;BME280;35268;42.642;23.308;2023-03-21T03:50:53;93741.56;;;8.97;53.69
49393;BME280;35268;42.642;23.308;2023-03-21T03:53:27;93742.34;;;8.97;53.79
49393;BME280;35268;42.642;23.308;2023-03-21T03:55:55;93732.03;;;8.96;53.94
49393;BME280;35268;42.642;23.308;2023-03-21T03:58:22;93730.00;;;9.01;54.09
49393;BME280;35268;42.642;23.308;2023-03-21T04:00:48;93724.22;;;8.99;54.19
49393;BME280;35268;42.642;23.308;2023-03-21T04:03:14;93729.84;;;8.98;53.87
49393;BME280;35268;42.642;23.308;2023-03-21T04:05:40;93730.63;;;8.98;54.11
49393;BME280;35268;42.642;23.308;2023-03-21T04:08:07;93733.28;;;8.98;53.98
49393;BME280;35268;42.642;23.308;2023-03-21T04:10:32;93727.97;;;8.98;54.00
49393;BME280;35268;42.642;23.308;2023-03-21T04:12:58;93726.38;;;8.97;53.97
49393;BME280;35268;42.642;23.308;2023-03-21T04:15:23;93730.75;;;8.93;54.27
49393;BME280;35268;42.642;23.308;2023-03-21T04:17:49;93719.63;;;8.91;54.71
49393;BME280;35268;42.642;23.308;2023-03-21T04:20:15;93717.44;;;8.93;54.58
49393;BME280;35268;42.642;23.308;2023-03-21T04:22:40;93717.16;;;8.95;54.73
49393;BME280;35268;42.642;23.308;2023-03-21T04:25:06;93725.91;;;8.95;54.79
49393;BME280;35268;42.642;23.308;2023-03-21T04:27:32;93722.19;;;8.96;54.99
49393;BME280;35268;42.642;23.308;2023-03-21T04:29:58;93708.88;;;8.96;54.85
49393;BME280;35268;42.642;23.308;2023-03-21T04:32:24;93714.97;;;8.97;55.14
49393;BME280;35268;42.642;23.308;2023-03-21T04:34:49;93715.75;;;8.97;54.91
49393;BME280;35268;42.642;23.308;2023-03-21T04:37:19;93728.72;;;8.90;55.00
49393;BME280;35268;42.642;23.308;2023-03-21T04:39:46;93721.50;;;8.91;54.84
49393;BME280;35268;42.642;23.308;2023-03-21T04:42:12;93731.84;;;8.92;55.06
49393;BME280;35268;42.642;23.308;2023-03-21T04:44:39;93730.59;;;8.90;54.96
49393;BME280;35268;42.642;23.308;2023-03-21T04:47:05;93726.06;;;8.90;55.56
49393;BME280;35268;42.642;23.308;2023-03-21T04:49:30;93731.38;;;8.90;55.32
49393;BME280;35268;42.642;23.308;2023-03-21T04:51:56;93728.22;;;8.88;55.01
49393;BME280;35268;42.642;23.308;2023-03-21T04:54:21;93731.97;;;8.87;54.92
49393;BME280;35268;42.642;23.308;2023-03-21T04:56:47;93734.03;;;8.90;54.61
49393;BME280;35268;42.642;23.308;2023-03-21T04:59:14;93738.91;;;8.97;54.07
49393;BME280;35268;42.642;23.308;2023-03-21T05:01:40;93738.72;;;8.93;54.54
49393;BME280;35268;42.642;23.308;2023-03-21T05:04:08;93740.00;;;8.96;54.52
49393;BME280;35268;42.642;23.308;2023-03-21T05:06:34;93729.53;;;8.99;54.40
49393;BME280;35268;42.642;23.308;2023-03-21T05:09:01;93727.81;;;9.03;54.14
49393;BME280;35268;42.642;23.308;2023-03-21T05:11:30;93737.22;;;9.10;54.03
49393;BME280;35268;42.642;23.308;2023-03-21T05:13:58;93740.53;;;9.15;54.38
49393;BME280;35268;42.642;23.308;2023-03-21T05:16:24;93734.81;;;9.22;54.38
49393;BME280;35268;42.642;23.308;2023-03-21T05:18:54;93744.34;;;9.23;54.25
49393;BME280;35268;42.642;23.308;2023-03-21T05:21:20;93752.78;;;9.25;54.20
49393;BME280;35268;42.642;23.308;2023-03-21T05:23:46;93748.44;;;9.29;53.79
49393;BME280;35268;42.642;23.308;2023-03-21T05:26:19;93745.16;;;9.32;53.69
49393;BME280;35268;42.642;23.308;2023-03-21T05:28:45;93745.50;;;9.39;53.34
49393;BME280;35268;42.642;23.308;2023-03-21T05:31:13;93752.25;;;9.46;53.62
49393;BME280;35268;42.642;23.308;2023-03-21T05:33:41;93747.56;;;9.51;53.60
49393;BME280;35268;42.642;23.308;2023-03-21T05:36:07;93752.91;;;9.60;53.58
49393;BME280;35268;42.642;23.308;2023-03-21T05:38:33;93748.53;;;9.64;53.92
49393;BME280;35268;42.642;23.308;2023-03-21T05:40:59;93748.06;;;9.71;53.66
49393;BME280;35268;42.642;23.308;2023-03-21T05:43:24;93753.44;;;9.79;53.56
49393;BME280;35268;42.642;23.308;2023-03-21T05:45:50;93750.19;;;9.91;52.86
49393;BME280;35268;42.642;23.308;2023-03-21T05:48:15;93745.81;;;10.04;52.23
49393;BME280;35268;42.642;23.308;2023-03-21T05:50:41;93745.03;;;10.12;51.99
49393;BME280;35268;42.642;23.308;2023-03-21T05:53:06;93745.97;;;10.25;51.60
49393;BME280;35268;42.642;23.308;2023-03-21T05:55:32;93741.78;;;10.33;51.12
49393;BME280;35268;42.642;23.308;2023-03-21T05:57:57;93729.22;;;10.42;51.43
49393;BME280;35268;42.642;23.308;2023-03-21T06:00:23;93722.78;;;10.52;50.94
49393;BME280;35268;42.642;23.308;2023-03-21T06:02:48;93724.81;;;10.63;50.55
49393;BME280;35268;42.642;23.308;2023-03-21T06:05:14;93722.28;;;10.76;50.05
49393;BME280;35268;42.642;23.308;2023-03-21T06:07:39;93724.91;;;10.84;49.56
49393;BME280;35268;42.642;23.308;2023-03-21T06:10:05;93719.59;;;10.93;49.75
49393;BME280;35268;42.642;23.308;2023-03-21T06:12:31;93717.66;;;11.02;49.68
49393;BME280;35268;42.642;23.308;2023-03-21T06:14:56;93721.56;;;11.14;49.20
49393;BME280;35268;42.642;23.308;2023-03-21T06:17:22;93715.69;;;11.29;49.12
49393;BME280;35268;42.642;23.308;2023-03-21T06:19:48;93708.91;;;11.40;48.94
49393;BME280;35268;42.642;23.308;2023-03-21T06:22:13;93709.63;;;11.50;48.52
49393;BME280;35268;42.642;23.308;2023-03-21T06:24:38;93711.91;;;11.60;48.27
49393;BME280;35268;42.642;23.308;2023-03-21T06:27:04;93707.34;;;11.69;48.13
49393;BME280;35268;42.642;23.308;2023-03-21T06:29:30;93704.47;;;11.74;48.08
49393;BME280;35268;42.642;23.308;2023-03-21T06:31:56;93699.25;;;11.78;48.27
49393;BME280;35268;42.642;23.308;2023-03-21T06:34:21;93695.59;;;11.91;48.05
49393;BME280;35268;42.642;23.308;2023-03-21T06:36:47;93705.13;;;12.01;48.73
49393;BME280;35268;42.642;23.308;2023-03-21T06:39:12;93705.38;;;12.08;49.12
49393;BME280;35268;42.642;23.308;2023-03-21T06:41:40;93707.06;;;12.13;48.91
49393;BME280;35268;42.642;23.308;2023-03-21T06:44:05;93713.66;;;12.15;48.74
49393;BME280;35268;42.642;23.308;2023-03-21T06:46:31;93717.81;;;12.25;48.57
49393;BME280;35268;42.642;23.308;2023-03-21T06:48:57;93715.53;;;12.36;48.01
49393;BME280;35268;42.642;23.308;2023-03-21T06:51:22;93721.91;;;12.43;47.36
49393;BME280;35268;42.642;23.308;2023-03-21T06:53:48;93727.06;;;12.49;47.18
49393;BME280;35268;42.642;23.308;2023-03-21T06:56:14;93732.31;;;12.57;46.92
49393;BME280;35268;42.642;23.308;2023-03-21T06:58:39;93717.50;;;12.48;45.36
49393;BME280;35268;42.642;23.308;2023-03-21T07:01:05;93722.84;;;12.48;46.36
49393;BME280;35268;42.642;23.308;2023-03-21T07:03:32;93723.63;;;12.48;47.25
49393;BME280;35268;42.642;23.308;2023-03-21T07:06:03;93734.91;;;12.54;46.52
49393;BME280;35268;42.642;23.308;2023-03-21T07:08:29;93730.31;;;12.54;46.56
49393;BME280;35268;42.642;23.308;2023-03-21T07:10:55;93735.44;;;12.59;47.02
49393;BME280;35268;42.642;23.308;2023-03-21T07:13:21;93726.91;;;12.66;46.91
49393;BME280;35268;42.642;23.308;2023-03-21T07:15:46;93735.94;;;12.74;46.63
49393;BME280;35268;42.642;23.308;2023-03-21T07:18:12;93737.53;;;12.75;46.85
49393;BME280;35268;42.642;23.308;2023-03-21T07:20:37;93736.41;;;12.76;46.68
49393;BME280;35268;42.642;23.308;2023-03-21T07:23:03;93736.78;;;12.87;46.53
49393;BME280;35268;42.642;23.308;2023-03-21T07:25:29;93744.41;;;12.97;46.00
49393;BME280;35268;42.642;23.308;2023-03-21T07:27:55;93726.66;;;13.04;45.97
49393;BME280;35268;42.642;23.308;2023-03-21T07:30:21;93735.53;;;13.17;45.71
49393;BME280;35268;42.642;23.308;2023-03-21T07:32:47;93736.09;;;13.23;45.48
49393;BME280;35268;42.642;23.308;2023-03-21T07:35:17;93734.47;;;13.43;45.38
49393;BME280;35268;42.642;23.308;2023-03-21T07:37:42;93735.91;;;13.65;44.95
49393;BME280;35268;42.642;23.308;2023-03-21T07:40:09;93729.47;;;13.78;43.63
49393;BME280;35268;42.642;23.308;2023-03-21T07:42:36;93725.75;;;13.83;43.40
49393;BME280;35268;42.642;23.308;2023-03-21T07:45:02;93730.56;;;13.90;42.21
49393;BME280;35268;42.642;23.308;2023-03-21T07:47:30;93732.69;;;13.84;42.46
49393;BME280;35268;42.642;23.308;2023-03-21T07:49:55;93732.59;;;13.80;42.66
49393;BME280;35268;42.642;23.308;2023-03-21T07:52:21;93742.53;;;13.80;43.26
49393;BME280;35268;42.642;23.308;2023-03-21T07:54:46;93746.19;;;13.75;42.35
49393;BME280;35268;42.642;23.308;2023-03-21T07:57:11;93737.72;;;13.73;42.14
49393;BME280;35268;42.642;23.308;2023-03-21T07:59:37;93734.69;;;13.62;42.42
49393;BME280;35268;42.642;23.308;2023-03-21T08:02:02;93740.72;;;13.72;42.52
49393;BME280;35268;42.642;23.308;2023-03-21T08:04:28;93740.63;;;13.80;41.54
49393;BME280;35268;42.642;23.308;2023-03-21T08:06:53;93745.41;;;13.75;41.97
49393;BME280;35268;42.642;23.308;2023-03-21T08:09:19;93736.25;;;13.76;41.42
49393;BME280;35268;42.642;23.308;2023-03-21T08:11:45;93741.59;;;13.76;41.84
49393;BME280;35268;42.642;23.308;2023-03-21T08:14:10;93736.16;;;13.72;41.47
49393;BME280;35268;42.642;23.308;2023-03-21T08:16:36;93739.50;;;13.81;41.76
49393;BME280;35268;42.642;23.308;2023-03-21T08:19:01;93732.91;;;13.91;41.87
49393;BME280;35268;42.642;23.308;2023-03-21T08:21:27;93736.25;;;14.00;41.49
49393;BME280;35268;42.642;23.308;2023-03-21T08:23:52;93733.56;;;14.13;41.22
49393;BME280;35268;42.642;23.308;2023-03-21T08:26:18;93727.16;;;14.17;40.87
49393;BME280;35268;42.642;23.308;2023-03-21T08:28:44;93729.38;;;14.28;41.08
49393;BME280;35268;42.642;23.308;2023-03-21T08:31:12;93720.41;;;14.36;39.38
49393;BME280;35268;42.642;23.308;2023-03-21T08:33:37;93721.78;;;14.30;39.62
49393;BME280;35268;42.642;23.308;2023-03-21T08:36:04;93732.50;;;14.30;39.42
49393;BME280;35268;42.642;23.308;2023-03-21T08:38:30;93720.59;;;14.43;39.52
49393;BME280;35268;42.642;23.308;2023-03-21T08:41:00;93730.00;;;14.49;39.46
49393;BME280;35268;42.642;23.308;2023-03-21T08:43:27;93728.75;;;14.59;39.23
49393;BME280;35268;42.642;23.308;2023-03-21T08:45:52;93719.00;;;14.67;39.75
49393;BME280;35268;42.642;23.308;2023-03-21T08:48:18;93722.06;;;14.81;39.12
49393;BME280;35268;42.642;23.308;2023-03-21T08:50:44;93720.19;;;14.97;38.85
49393;BME280;35268;42.642;23.308;2023-03-21T08:53:09;93725.50;;;15.10;38.32
49393;BME280;35268;42.642;23.308;2023-03-21T08:55:35;93714.94;;;15.17;38.67
49393;BME280;35268;42.642;23.308;2023-03-21T08:58:00;93713.06;;;15.33;38.95
49393;BME280;35268;42.642;23.308;2023-03-21T09:00:26;93717.03;;;15.39;37.68
49393;BME280;35268;42.642;23.308;2023-03-21T09:02:52;93713.66;;;15.42;36.95
49393;BME280;35268;42.642;23.308;2023-03-21T09:05:19;93723.78;;;15.33;36.63
49393;BME280;35268;42.642;23.308;2023-03-21T09:07:45;93721.63;;;15.23;36.33
49393;BME280;35268;42.642;23.308;2023-03-21T09:10:16;93720.94;;;15.10;36.82
49393;BME280;35268;42.642;23.308;2023-03-21T09:12:42;93711.63;;;15.08;36.67
49393;BME280;35268;42.642;23.308;2023-03-21T09:15:09;93712.78;;;15.07;37.07
49393;BME280;35268;42.642;23.308;2023-03-21T09:17:36;93706.28;;;15.08;37.75
49393;BME280;35268;42.642;23.308;2023-03-21T09:20:12;93711.94;;;15.18;37.31
49393;BME280;35268;42.642;23.308;2023-03-21T09:22:46;93694.34;;;15.21;37.06
49393;BME280;35268;42.642;23.308;2023-03-21T09:25:13;93688.97;;;15.21;37.50
49393;BME280;35268;42.642;23.308;2023-03-21T09:27:39;93689.56;;;15.30;36.93
49393;BME280;35268;42.642;23.308;2023-03-21T09:30:05;93681.50;;;15.30;37.18
49393;BME280;35268;42.642;23.308;2023-03-21T09:32:33;93692.78;;;15.20;37.08
49393;BME280;35268;42.642;23.308;2023-03-21T09:34:59;93691.56;;;15.33;37.32
49393;BME280;35268;42.642;23.308;2023-03-21T09:37:25;93681.06;;;15.44;36.69
49393;BME280;35268;42.642;23.308;2023-03-21T09:39:51;93674.66;;;15.49;37.46
49393;BME280;35268;42.642;23.308;2023-03-21T09:45:11;93658.81;;;15.75;37.29
49393;BME280;35268;42.642;23.308;2023-03-21T09:47:46;93664.22;;;15.95;36.70
49393;BME280;35268;42.642;23.308;2023-03-21T09:50:23;93664.50;;;16.09;36.13
49393;BME280;35268;42.642;23.308;2023-03-21T09:53:00;93661.69;;;16.21;35.85
49393;BME280;35268;42.642;23.308;2023-03-21T09:55:35;93660.97;;;16.44;36.07
49393;BME280;35268;42.642;23.308;2023-03-21T10:00:35;93661.41;;;16.65;34.75
49393;BME280;35268;42.642;23.308;2023-03-21T10:03:04;93652.47;;;16.81;35.00
49393;BME280;35268;42.642;23.308;2023-03-21T10:05:34;93656.66;;;16.98;34.77
49393;BME280;35268;42.642;23.308;2023-03-21T10:08:11;93647.72;;;17.17;33.86
49393;BME280;35268;42.642;23.308;2023-03-21T10:10:44;93640.41;;;17.40;34.26
49393;BME280;35268;42.642;23.308;2023-03-21T10:13:14;93641.50;;;17.62;33.28
49393;BME280;35268;42.642;23.308;2023-03-21T10:15:41;93632.13;;;17.79;32.29
49393;BME280;35268;42.642;23.308;2023-03-21T10:18:07;93631.94;;;17.92;31.62
49393;BME280;35268;42.642;23.308;2023-03-21T10:20:40;93632.34;;;17.94;32.19
49393;BME280;35268;42.642;23.308;2023-03-21T10:23:12;93637.28;;;17.88;31.95
49393;BME280;35268;42.642;23.308;2023-03-21T10:25:40;93630.28;;;17.83;31.00
49393;BME280;35268;42.642;23.308;2023-03-21T10:28:07;93632.75;;;17.96;31.40
49393;BME280;35268;42.642;23.308;2023-03-21T10:30:50;93628.25;;;18.03;31.77
49393;BME280;35268;42.642;23.308;2023-03-21T10:33:23;93629.50;;;18.13;31.56
49393;BME280;35268;42.642;23.308;2023-03-21T10:35:53;93632.47;;;18.35;30.70
49393;BME280;35268;42.642;23.308;2023-03-21T10:38:22;93637.22;;;18.45;30.92
49393;BME280;35268;42.642;23.308;2023-03-21T10:40:49;93638.50;;;18.55;31.33
49393;BME280;35268;42.642;23.308;2023-03-21T10:43:18;93641.72;;;18.68;30.53
49393;BME280;35268;42.642;23.308;2023-03-21T10:45:45;93639.19;;;18.82;29.62
49393;BME280;35268;42.642;23.308;2023-03-21T10:48:11;93637.00;;;18.95;29.19
49393;BME280;35268;42.642;23.308;2023-03-21T10:50:37;93634.41;;;19.06;28.90
49393;BME280;35268;42.642;23.308;2023-03-21T10:53:13;93627.16;;;19.17;29.07
49393;BME280;35268;42.642;23.308;2023-03-21T10:55:40;93623.09;;;19.34;29.10
49393;BME280;35268;42.642;23.308;2023-03-21T10:58:08;93614.81;;;19.16;29.09
49393;BME280;35268;42.642;23.308;2023-03-21T11:00:39;93606.47;;;18.91;29.82
49393;BME280;35268;42.642;23.308;2023-03-21T11:03:13;93619.69;;;18.99;30.49
49393;BME280;35268;42.642;23.308;2023-03-21T11:05:45;93609.34;;;19.05;29.58
49393;BME280;35268;42.642;23.308;2023-03-21T11:08:16;93610.94;;;18.76;30.11
49393;BME280;35268;42.642;23.308;2023-03-21T11:13:23;93613.94;;;19.04;29.58
49393;BME280;35268;42.642;23.308;2023-03-21T11:15:53;93610.06;;;19.02;29.75
49393;BME280;35268;42.642;23.308;2023-03-21T11:18:21;93607.94;;;19.22;30.21
49393;BME280;35268;42.642;23.308;2023-03-21T11:21:02;93604.94;;;19.34;29.13
49393;BME280;35268;42.642;23.308;2023-03-21T11:23:30;93597.56;;;19.31;29.31
49393;BME280;35268;42.642;23.308;2023-03-21T11:25:59;93591.66;;;19.15;29.11
49393;BME280;35268;42.642;23.308;2023-03-21T11:28:31;93591.31;;;19.20;29.51
49393;BME280;35268;42.642;23.308;2023-03-21T11:30:59;93584.75;;;19.17;29.29
49393;BME280;35268;42.642;23.308;2023-03-21T11:33:48;93583.50;;;19.08;29.43
49393;BME280;35268;42.642;23.308;2023-03-21T11:38:47;93571.53;;;19.05;29.08
49393;BME280;35268;42.642;23.308;2023-03-21T11:41:46;93564.59;;;19.08;28.68
49393;BME280;35268;42.642;23.308;2023-03-21T11:44:34;93567.28;;;19.08;29.06
49393;BME280;35268;42.642;23.308;2023-03-21T11:47:07;93565.84;;;19.21;29.18
49393;BME280;35268;42.642;23.308;2023-03-21T11:49:34;93570.94;;;19.33;28.87
49393;BME280;35268;42.642;23.308;2023-03-21T11:52:19;93564.47;;;19.45;27.49
49393;BME280;35268;42.642;23.308;2023-03-21T11:55:30;93564.00;;;19.32;27.98
49393;BME280;35268;42.642;23.308;2023-03-21T11:58:09;93563.13;;;19.17;27.71
49393;BME280;35268;42.642;23.308;2023-03-21T12:00:45;93560.06;;;19.22;27.65
49393;BME280;35268;42.642;23.308;2023-03-21T12:06:14;93546.59;;;19.26;28.57
49393;BME280;35268;42.642;23.308;2023-03-21T12:08:48;93543.19;;;19.36;27.99
49393;BME280;35268;42.642;23.308;2023-03-21T12:11:21;93544.00;;;19.48;27.64
49393;BME280;35268;42.642;23.308;2023-03-21T12:17:17;93536.69;;;19.52;26.22
49393;BME280;35268;42.642;23.308;2023-03-21T12:19:48;93529.69;;;19.40;26.22
49393;BME280;35268;42.642;23.308;2023-03-21T12:22:33;93530.91;;;19.50;26.49
49393;BME280;35268;42.642;23.308;2023-03-21T12:25:18;93533.50;;;19.35;26.52
49393;BME280;35268;42.642;23.308;2023-03-21T12:27:54;93524.47;;;19.10;27.77
49393;BME280;35268;42.642;23.308;2023-03-21T12:44:33;93516.81;;;19.81;26.83
49393;BME280;35268;42.642;23.308;2023-03-21T12:47:02;93514.09;;;19.81;24.86
49393;BME280;35268;42.642;23.308;2023-03-21T12:49:31;93512.06;;;19.64;25.23
49393;BME280;35268;42.642;23.308;2023-03-21T12:54:52;93502.25;;;19.34;26.15
49393;BME280;35268;42.642;23.308;2023-03-21T12:57:24;93500.72;;;19.37;26.60
49393;BME280;35268;42.642;23.308;2023-03-21T13:02:33;93490.69;;;19.37;27.37
49393;BME280;35268;42.642;23.308;2023-03-21T13:07:46;93487.66;;;19.46;28.20
49393;BME280;35268;42.642;23.308;2023-03-21T13:10:15;93481.84;;;19.44;28.19
49393;BME280;35268;42.642;23.308;2023-03-21T13:18:03;93492.16;;;19.24;28.37
49393;BME280;35268;42.642;23.308;2023-03-21T13:20:41;93487.06;;;19.12;27.93
49393;BME280;35268;42.642;23.308;2023-03-21T13:23:08;93483.59;;;19.15;28.04
49393;BME280;35268;42.642;23.308;2023-03-21T13:25:47;93481.63;;;19.08;28.48
49393;BME280;35268;42.642;23.308;2023-03-21T13:28:27;93477.00;;;19.05;28.30
49393;BME280;35268;42.642;23.308;2023-03-21T13:31:14;93472.25;;;18.91;28.47
49393;BME280;35268;42.642;23.308;2023-03-21T13:33:47;93467.16;;;18.79;28.83
49393;BME280;35268;42.642;23.308;2023-03-21T13:36:34;93464.75;;;18.74;28.94
49393;BME280;35268;42.642;23.308;2023-03-21T13:39:04;93471.72;;;18.75;29.70
49393;BME280;35268;42.642;23.308;2023-03-21T13:41:41;93475.19;;;18.75;29.97
49393;BME280;35268;42.642;23.308;2023-03-21T13:44:21;93461.69;;;18.75;29.53
49393;BME280;35268;42.642;23.308;2023-03-21T13:49:29;93452.44;;;18.76;29.63
49393;BME280;35268;42.642;23.308;2023-03-21T13:51:57;93452.00;;;18.67;29.56
49393;BME280;35268;42.642;23.308;2023-03-21T13:54:45;93460.81;;;18.60;30.01
49393;BME280;35268;42.642;23.308;2023-03-21T13:57:35;93456.16;;;18.57;30.39
49393;BME280;35268;42.642;23.308;2023-03-21T14:00:27;93454.63;;;18.56;30.49
49393;BME280;35268;42.642;23.308;2023-03-21T14:03:07;93445.72;;;18.52;31.10
49393;BME280;35268;42.642;23.308;2023-03-21T14:05:33;93455.69;;;18.48;31.00
49393;BME280;35268;42.642;23.308;2023-03-21T14:08:05;93455.31;;;18.46;30.87
49393;BME280;35268;42.642;23.308;2023-03-21T14:10:40;93456.78;;;18.40;31.38
49393;BME280;35268;42.642;23.308;2023-03-21T14:13:07;93447.47;;;18.34;30.83
49393;BME280;35268;42.642;23.308;2023-03-21T14:15:41;93445.84;;;18.25;31.03
49393;BME280;35268;42.642;23.308;2023-03-21T14:18:14;93447.31;;;18.16;31.37
49393;BME280;35268;42.642;23.308;2023-03-21T14:20:40;93452.25;;;18.10;31.27
49393;BME280;35268;42.642;23.308;2023-03-21T14:23:11;93458.28;;;17.96;31.89
49393;BME280;35268;42.642;23.308;2023-03-21T14:25:38;93447.78;;;17.88;32.11
49393;BME280;35268;42.642;23.308;2023-03-21T14:28:20;93453.47;;;17.82;32.89